createdAt,value
2022-10-11T00:02:26.361Z,8.59
2022-10-11T00:04:53.830Z,8.57
2022-10-11T00:07:21.199Z,8.61
2022-10-11T00:09:49.864Z,8.56
2022-10-11T00:12:17.035Z,8.54
2022-10-11T00:14:44.350Z,8.52
2022-10-11T00:17:11.671Z,8.50
2022-10-11T00:19:38.958Z,8.54
2022-10-11T00:22:06.189Z,8.48
2022-10-11T00:24:33.419Z,8.45
2022-10-11T00:27:01.960Z,8.44
2022-10-11T00:29:29.223Z,8.43
2022-10-11T00:31:56.712Z,8.45
2022-10-11T00:34:23.974Z,8.45
2022-10-11T00:36:51.239Z,8.42
2022-10-11T00:39:18.462Z,8.39
2022-10-11T00:41:45.853Z,8.35
2022-10-11T00:44:17.045Z,8.36
2022-10-11T00:46:53.668Z,8.30
2022-10-11T00:49:30.303Z,8.33
2022-10-11T00:52:01.424Z,8.28
2022-10-11T00:54:33.152Z,8.28
2022-10-11T00:57:04.636Z,8.27
2022-10-11T00:59:36.866Z,8.29
2022-10-11T01:02:05.313Z,8.29
2022-10-11T01:04:32.945Z,8.23
2022-10-11T01:07:01.599Z,8.27
2022-10-11T01:09:29.915Z,8.24
2022-10-11T01:12:01.054Z,8.24
2022-10-11T01:14:42.860Z,8.24
2022-10-11T01:17:20.723Z,8.18
2022-10-11T01:20:02.283Z,8.18
2022-10-11T01:22:47.647Z,8.20
2022-10-11T01:25:26.992Z,8.17
2022-10-11T01:28:16.731Z,8.12
2022-10-11T01:30:46.357Z,8.10
2022-10-11T01:33:21.496Z,8.15
2022-10-11T01:35:56.913Z,8.14
2022-10-11T01:38:30.465Z,8.14
2022-10-11T01:41:04.353Z,8.07
2022-10-11T01:43:33.823Z,8.09
2022-10-11T01:46:04.044Z,8.05
2022-10-11T01:48:31.617Z,8.04
2022-10-11T01:51:02.174Z,8.00
2022-10-11T01:53:49.449Z,7.96
2022-10-11T01:56:38.929Z,7.91
2022-10-11T01:59:23.234Z,7.90
2022-10-11T02:02:03.300Z,7.90
2022-10-11T02:04:36.921Z,7.92
2022-10-11T02:07:09.729Z,7.93
2022-10-11T02:09:44.544Z,7.90
2022-10-11T02:12:17.484Z,7.92
2022-10-11T02:14:49.287Z,7.85
2022-10-11T02:17:21.314Z,7.86
2022-10-11T02:19:52.920Z,7.85
2022-10-11T02:22:24.733Z,7.86
2022-10-11T02:24:55.503Z,7.86
2022-10-11T02:27:27.519Z,7.83
2022-10-11T02:29:56.659Z,7.84
2022-10-11T02:32:26.535Z,7.79
2022-10-11T02:34:55.703Z,7.79
2022-10-11T02:37:27.498Z,7.76
2022-10-11T02:39:58.316Z,7.77
2022-10-11T02:42:30.349Z,7.74
2022-10-11T02:45:02.766Z,7.77
2022-10-11T02:47:32.309Z,7.75
2022-10-11T02:50:00.426Z,7.78
2022-10-11T02:52:27.641Z,7.71
2022-10-11T02:54:54.911Z,7.67
2022-10-11T02:57:22.196Z,7.65
2022-10-11T02:59:49.458Z,7.67
2022-10-11T03:02:16.700Z,7.68
2022-10-11T03:04:45.602Z,7.67
2022-10-11T03:07:12.884Z,7.60
2022-10-11T03:09:40.400Z,7.62
2022-10-11T03:12:07.796Z,7.66
2022-10-11T03:14:34.975Z,7.63
2022-10-11T03:17:23.850Z,7.62
2022-10-11T03:19:50.862Z,7.60
2022-10-11T03:22:18.075Z,7.59
2022-10-11T03:24:45.301Z,7.54
2022-10-11T03:27:12.753Z,7.51
2022-10-11T03:29:39.976Z,7.51
2022-10-11T03:32:07.231Z,7.50
2022-10-11T03:34:34.508Z,7.51
2022-10-11T03:37:03.113Z,7.51
2022-10-11T03:39:30.633Z,7.49
2022-10-11T03:41:57.852Z,7.45
2022-10-11T03:44:27.480Z,7.46
2022-10-11T03:46:55.035Z,7.45
2022-10-11T03:49:22.276Z,7.50
2022-10-11T03:51:49.532Z,7.48
2022-10-11T03:54:18.180Z,7.46
2022-10-11T03:56:45.574Z,7.41
2022-10-11T03:59:12.960Z,7.38
2022-10-11T04:01:40.287Z,7.35
2022-10-11T04:04:07.805Z,7.37
2022-10-11T04:06:35.144Z,7.32
2022-10-11T04:09:02.419Z,7.32
2022-10-11T04:11:31.042Z,7.32
2022-10-11T04:13:58.414Z,7.37
2022-10-11T04:16:25.725Z,7.41
2022-10-11T04:18:52.961Z,7.38
2022-10-11T04:21:20.151Z,7.36
2022-10-11T04:23:47.476Z,7.36
2022-10-11T04:26:14.667Z,7.30
2022-10-11T04:28:43.294Z,7.35
2022-10-11T04:31:10.548Z,7.32
2022-10-11T04:33:37.797Z,7.33
2022-10-11T04:36:05.964Z,7.29
2022-10-11T04:38:33.443Z,7.23
2022-10-11T04:41:07.215Z,7.25
2022-10-11T04:43:34.616Z,7.26
2022-10-11T04:46:03.536Z,7.20
2022-10-11T04:48:30.944Z,7.21
2022-10-11T04:50:58.380Z,7.13
2022-10-11T04:53:25.732Z,7.15
2022-10-11T04:55:57.545Z,7.15
2022-10-11T04:58:24.833Z,7.18
2022-10-11T05:00:52.051Z,7.18
2022-10-11T05:03:20.675Z,7.17
2022-10-11T05:05:48.243Z,7.12
2022-10-11T05:08:15.701Z,7.10
2022-10-11T05:10:42.938Z,7.06
2022-10-11T05:13:10.207Z,7.08
2022-10-11T05:15:37.471Z,7.04
2022-10-11T05:18:04.692Z,7.06
2022-10-11T05:20:33.276Z,6.99
2022-10-11T05:23:00.511Z,7.02
2022-10-11T05:25:27.709Z,7.01
2022-10-11T05:27:54.924Z,7.04
2022-10-11T05:30:22.237Z,7.04
2022-10-11T05:32:49.505Z,7.04
2022-10-11T05:35:16.902Z,6.99
2022-10-11T05:37:45.492Z,7.01
2022-10-11T05:40:13.031Z,7.04
2022-10-11T05:42:40.430Z,7.03
2022-10-11T05:45:08.428Z,6.98
2022-10-11T05:47:35.683Z,7.04
2022-10-11T05:50:02.926Z,7.11
2022-10-11T05:52:30.721Z,7.05
2022-10-11T05:54:59.368Z,7.04
2022-10-11T05:57:26.562Z,7.04
2022-10-11T05:59:53.755Z,7.00
2022-10-11T06:02:21.007Z,7.03
2022-10-11T06:04:48.318Z,7.06
2022-10-11T06:07:15.510Z,7.03
2022-10-11T06:09:42.745Z,7.08
2022-10-11T06:12:11.310Z,7.06
2022-10-11T06:14:38.643Z,7.09
2022-10-11T06:17:05.910Z,7.10
2022-10-11T06:19:33.135Z,7.13
2022-10-11T06:22:00.411Z,7.17
2022-10-11T06:24:27.604Z,7.24
2022-10-11T06:26:54.879Z,7.19
2022-10-11T06:29:23.547Z,7.20
2022-10-11T06:31:50.817Z,7.22
2022-10-11T06:34:18.079Z,7.19
2022-10-11T06:36:45.351Z,7.19
2022-10-11T06:39:12.572Z,7.20
2022-10-11T06:41:39.820Z,7.23
2022-10-11T06:44:09.688Z,7.24
2022-10-11T06:46:42.357Z,7.32
2022-10-11T06:49:09.557Z,7.30
2022-10-11T06:51:36.855Z,7.39
2022-10-11T06:54:04.158Z,7.39
2022-10-11T06:56:31.552Z,7.44
2022-10-11T06:58:59.429Z,7.47
2022-10-11T07:01:27.578Z,7.49
2022-10-11T07:03:58.055Z,7.54
2022-10-11T07:06:26.821Z,7.60
2022-10-11T07:08:54.611Z,7.62
2022-10-11T07:11:23.804Z,7.69
2022-10-11T07:13:53.678Z,7.72
2022-10-11T07:16:21.720Z,7.78
2022-10-11T07:18:57.248Z,7.80
2022-10-11T07:21:30.139Z,7.87
2022-10-11T07:23:57.410Z,7.91
2022-10-11T07:26:24.633Z,7.98
2022-10-11T07:28:51.891Z,7.98
2022-10-11T07:31:21.802Z,8.06
2022-10-11T07:33:49.063Z,8.15
2022-10-11T07:36:16.860Z,8.22
2022-10-11T07:38:47.013Z,8.23
2022-10-11T07:41:14.500Z,8.30
2022-10-11T07:43:41.789Z,8.43
2022-10-11T07:46:10.198Z,8.44
2022-10-11T07:48:38.636Z,8.42
2022-10-11T07:51:07.518Z,8.49
2022-10-11T07:53:39.034Z,8.55
2022-10-11T07:56:09.179Z,8.59
2022-10-11T07:58:36.705Z,8.74
2022-10-11T08:01:04.548Z,8.86
2022-10-11T08:03:31.988Z,8.92
2022-10-11T08:06:00.638Z,8.97
2022-10-11T08:08:28.361Z,9.12
2022-10-11T08:10:55.618Z,9.18
2022-10-11T08:13:24.440Z,9.37
2022-10-11T08:15:51.757Z,9.54
2022-10-11T08:18:19.355Z,9.69
2022-10-11T08:20:46.528Z,9.86
2022-10-11T08:23:14.196Z,10.01
2022-10-11T08:25:43.737Z,10.19
2022-10-11T08:28:11.345Z,10.25
2022-10-11T08:30:39.945Z,10.40
2022-10-11T08:33:08.674Z,10.47
2022-10-11T08:35:36.242Z,10.61
2022-10-11T08:38:03.482Z,10.65
2022-10-11T08:40:35.184Z,10.83
2022-10-11T08:43:05.395Z,11.01
2022-10-11T08:45:42.607Z,11.04
2022-10-11T08:48:16.944Z,11.19
2022-10-11T08:50:49.098Z,11.38
2022-10-11T08:53:26.833Z,11.50
2022-10-11T08:55:55.394Z,11.68
2022-10-11T08:58:30.070Z,11.74
2022-10-11T09:00:59.183Z,11.81
2022-10-11T09:03:36.592Z,11.98
2022-10-11T09:06:13.701Z,12.08
2022-10-11T09:08:56.389Z,12.26
2022-10-11T09:11:38.724Z,12.38
2022-10-11T09:14:20.421Z,12.37
2022-10-11T09:17:00.121Z,12.38
2022-10-11T09:19:56.229Z,12.81
2022-10-11T09:22:30.888Z,12.85
2022-10-11T09:25:18.650Z,12.85
2022-10-11T09:28:02.253Z,13.04
2022-10-11T09:30:31.021Z,13.13
2022-10-11T09:33:05.879Z,13.15
2022-10-11T09:35:39.379Z,13.31
2022-10-11T09:38:14.285Z,13.38
2022-10-11T09:40:53.325Z,13.34
2022-10-11T09:43:20.637Z,13.41
2022-10-11T09:45:49.668Z,13.55
2022-10-11T09:48:21.698Z,13.65
2022-10-11T09:50:51.492Z,13.78
2022-10-11T09:53:19.009Z,13.72
2022-10-11T09:55:52.076Z,13.74
2022-10-11T09:58:27.626Z,13.90
2022-10-11T10:01:06.556Z,14.15
2022-10-11T10:03:36.793Z,14.13
2022-10-11T10:06:13.721Z,15.10
2022-10-11T10:08:40.981Z,15.88
2022-10-11T10:11:09.370Z,16.40
2022-10-11T10:13:43.170Z,16.45
2022-10-11T10:16:21.568Z,16.66
2022-10-11T10:18:52.839Z,16.27
2022-10-11T10:21:28.977Z,17.57
2022-10-11T10:23:57.423Z,16.85
2022-10-11T10:26:26.324Z,16.71
2022-10-11T10:28:59.332Z,17.37
2022-10-11T10:31:40.266Z,17.81
2022-10-11T10:34:25.691Z,16.83
2022-10-11T10:36:58.031Z,16.85
2022-10-11T10:39:29.999Z,16.55
2022-10-11T10:41:57.611Z,16.46
2022-10-11T10:44:25.026Z,16.71
2022-10-11T10:47:03.468Z,17.22
2022-10-11T10:49:54.673Z,17.85
2022-10-11T10:52:45.819Z,17.33
2022-10-11T10:55:23.356Z,16.82
2022-10-11T10:58:05.685Z,16.50
2022-10-11T11:00:42.112Z,16.21
2022-10-11T11:03:19.779Z,16.23
2022-10-11T11:05:56.409Z,17.00
2022-10-11T11:08:38.595Z,18.51
2022-10-11T11:11:19.210Z,19.34
2022-10-11T11:13:55.352Z,17.30
2022-10-11T11:16:31.381Z,17.66
2022-10-11T11:19:06.287Z,18.28
2022-10-11T11:21:41.632Z,17.70
2022-10-11T11:24:18.602Z,18.12
2022-10-11T11:26:55.455Z,18.67
2022-10-11T11:29:38.201Z,18.32
2022-10-11T11:32:21.141Z,18.17
2022-10-11T11:34:54.649Z,18.70
2022-10-11T11:37:26.850Z,18.35
2022-10-11T11:39:59.818Z,18.84
2022-10-11T11:42:35.876Z,19.33
2022-10-11T11:45:05.908Z,19.34
2022-10-11T11:47:37.624Z,19.53
2022-10-11T11:50:15.647Z,18.52
2022-10-11T11:52:47.182Z,18.99
2022-10-11T11:55:21.071Z,18.34
2022-10-11T11:58:02.067Z,18.77
2022-10-11T12:00:42.472Z,18.98
2022-10-11T12:03:13.304Z,19.20
2022-10-11T12:06:16.711Z,18.12
2022-10-11T12:08:47.767Z,18.16
2022-10-11T12:11:22.186Z,18.78
2022-10-11T12:13:51.784Z,20.20
2022-10-11T12:16:21.166Z,19.90
2022-10-11T12:18:51.843Z,20.33
2022-10-11T12:21:24.761Z,19.40
2022-10-11T12:23:53.195Z,19.42
2022-10-11T12:26:43.688Z,19.70
2022-10-11T12:29:42.474Z,20.94
2022-10-11T12:32:49.316Z,18.58
2022-10-11T12:35:51.247Z,18.18
2022-10-11T12:38:22.221Z,19.55
2022-10-11T12:40:51.525Z,19.84
2022-10-11T12:43:35.406Z,20.52
2022-10-11T12:46:48.461Z,19.24
2022-10-11T12:49:29.407Z,19.60
2022-10-11T12:52:00.925Z,20.35
2022-10-11T12:54:54.899Z,21.67
2022-10-11T12:57:50.053Z,20.79
2022-10-11T13:00:22.169Z,19.95
2022-10-11T13:02:49.821Z,20.85
2022-10-11T13:05:23.424Z,20.60
2022-10-11T13:07:52.461Z,21.69
2022-10-11T13:10:26.180Z,20.70
2022-10-11T13:12:54.690Z,20.33
2022-10-11T13:15:23.726Z,18.34
2022-10-11T13:17:50.956Z,18.35
2022-10-11T13:20:21.125Z,18.65
2022-10-11T13:22:51.474Z,17.76
2022-10-11T13:25:22.031Z,16.80
2022-10-11T13:27:51.264Z,16.44
2022-10-11T13:30:20.865Z,16.14
2022-10-11T13:32:51.090Z,15.93
2022-10-11T13:35:31.353Z,17.27
2022-10-11T13:37:59.321Z,18.86
2022-10-11T13:40:27.398Z,19.66
2022-10-11T13:42:55.667Z,19.96
2022-10-11T13:45:25.144Z,20.54
2022-10-11T13:47:54.982Z,21.15
2022-10-11T13:50:24.981Z,21.61
2022-10-11T13:52:56.713Z,20.86
2022-10-11T13:55:27.626Z,21.36
2022-10-11T13:57:56.416Z,21.23
2022-10-11T14:00:28.274Z,20.10
2022-10-11T14:02:59.698Z,20.24
2022-10-11T14:05:31.534Z,21.96
2022-10-11T14:08:01.283Z,22.96
2022-10-11T14:10:29.508Z,22.64
2022-10-11T14:13:07.490Z,23.61
2022-10-11T14:15:36.361Z,23.40
2022-10-11T14:18:31.989Z,22.73
2022-10-11T14:21:23.130Z,21.27
2022-10-11T14:23:51.704Z,21.81
2022-10-11T14:26:20.194Z,21.16
2022-10-11T14:28:51.640Z,20.35
2022-10-11T14:31:19.022Z,19.40
2022-10-11T14:33:47.881Z,20.16
2022-10-11T14:36:15.247Z,20.98
2022-10-11T14:38:42.473Z,20.48
2022-10-11T14:41:09.742Z,21.11
2022-10-11T14:43:37.008Z,19.87
2022-10-11T14:46:04.657Z,17.87
2022-10-11T14:48:53.719Z,17.68
2022-10-11T14:51:24.421Z,17.13
2022-10-11T14:53:51.651Z,16.94
2022-10-11T14:56:21.717Z,16.32
2022-10-11T14:58:49.593Z,16.52
2022-10-11T15:01:17.555Z,16.42
2022-10-11T15:03:44.972Z,16.41
2022-10-11T15:06:18.689Z,16.52
2022-10-11T15:08:47.728Z,16.69
2022-10-11T15:11:17.782Z,16.58
2022-10-11T15:13:45.494Z,16.23
2022-10-11T15:16:14.539Z,16.10
2022-10-11T15:18:42.032Z,15.82
2022-10-11T15:21:13.163Z,15.78
2022-10-11T15:23:40.507Z,15.67
2022-10-11T15:26:09.702Z,15.69
2022-10-11T15:28:37.109Z,15.45
2022-10-11T15:31:04.713Z,15.37
2022-10-11T15:33:32.148Z,15.19
2022-10-11T15:35:59.460Z,15.17
2022-10-11T15:38:26.682Z,15.00
2022-10-11T15:40:54.579Z,15.05
2022-10-11T15:43:24.972Z,15.01
2022-10-11T15:45:52.537Z,15.12
2022-10-11T15:48:21.741Z,15.05
2022-10-11T15:50:50.122Z,14.97
2022-10-11T15:53:19.448Z,14.95
2022-10-11T15:55:49.328Z,15.15
2022-10-11T15:58:18.279Z,15.21
2022-10-11T16:00:49.003Z,15.25
2022-10-11T16:03:17.905Z,15.17
2022-10-11T16:05:45.135Z,15.07
2022-10-11T16:08:12.360Z,15.02
2022-10-11T16:10:42.648Z,14.96
2022-10-11T16:13:10.659Z,14.79
2022-10-11T16:15:39.356Z,14.74
2022-10-11T16:18:10.092Z,14.90
2022-10-11T16:20:37.586Z,14.71
2022-10-11T16:23:05.152Z,14.77
2022-10-11T16:25:32.587Z,14.59
2022-10-11T16:28:00.191Z,14.68
2022-10-11T16:30:27.386Z,14.67
2022-10-11T16:32:55.213Z,14.61
2022-10-11T16:35:23.894Z,14.51
2022-10-11T16:37:51.089Z,14.45
2022-10-11T16:40:18.487Z,14.47
2022-10-11T16:42:46.913Z,14.55
2022-10-11T16:45:15.215Z,14.47
2022-10-11T16:47:43.558Z,14.41
2022-10-11T16:50:12.056Z,14.40
2022-10-11T16:52:40.705Z,14.27
2022-10-11T16:55:08.854Z,14.14
2022-10-11T16:57:36.088Z,14.09
2022-10-11T17:00:05.365Z,14.11
2022-10-11T17:02:32.756Z,14.08
2022-10-11T17:05:00.257Z,14.08
2022-10-11T17:07:27.704Z,14.03
2022-10-11T17:09:56.286Z,14.02
2022-10-11T17:12:24.744Z,14.08
2022-10-11T17:14:52.162Z,14.11
2022-10-11T17:17:20.082Z,14.24
2022-10-11T17:19:47.658Z,14.23
2022-10-11T17:22:17.370Z,14.28
2022-10-11T17:24:44.744Z,14.21
2022-10-11T17:27:13.433Z,14.18
2022-10-11T17:29:40.852Z,14.20
2022-10-11T17:32:08.220Z,14.23
2022-10-11T17:34:35.476Z,14.25
2022-10-11T17:37:02.912Z,14.22
2022-10-11T17:39:30.170Z,14.24
2022-10-11T17:41:57.472Z,14.26
2022-10-11T17:44:26.065Z,14.21
2022-10-11T17:46:53.309Z,14.15
2022-10-11T17:49:20.566Z,14.09
2022-10-11T17:51:47.777Z,14.11
2022-10-11T17:54:14.960Z,14.10
2022-10-11T17:56:42.265Z,14.11
2022-10-11T17:59:15.590Z,14.08
2022-10-11T18:01:44.299Z,14.05
2022-10-11T18:04:11.521Z,14.07
2022-10-11T18:06:39.646Z,14.03
2022-10-11T18:09:07.120Z,14.05
2022-10-11T18:11:34.969Z,14.00
2022-10-11T18:14:02.243Z,14.00
2022-10-11T18:16:31.576Z,13.93
2022-10-11T18:19:03.809Z,13.97
2022-10-11T18:21:34.369Z,13.98
2022-10-11T18:24:03.836Z,13.88
2022-10-11T18:26:31.282Z,13.87
2022-10-11T18:28:59.044Z,13.76
2022-10-11T18:31:28.299Z,13.80
2022-10-11T18:33:56.306Z,13.78
2022-10-11T18:36:26.799Z,13.75
2022-10-11T18:38:56.752Z,13.73
2022-10-11T18:41:27.027Z,13.70
2022-10-11T18:43:56.153Z,13.70
2022-10-11T18:46:25.808Z,13.71
2022-10-11T18:48:54.956Z,13.64
2022-10-11T18:51:26.055Z,13.65
2022-10-11T18:53:54.279Z,13.67
2022-10-11T18:56:23.069Z,13.60
2022-10-11T18:58:51.906Z,13.64
2022-10-11T19:01:21.265Z,13.62
2022-10-11T19:03:50.994Z,13.63
2022-10-11T19:06:21.191Z,13.64
2022-10-11T19:08:51.740Z,13.61
2022-10-11T19:11:19.625Z,13.60
2022-10-11T19:13:47.052Z,13.58
2022-10-11T19:16:16.908Z,13.59
2022-10-11T19:18:44.643Z,13.62
2022-10-11T19:21:13.140Z,13.51
2022-10-11T19:23:42.046Z,13.49
2022-10-11T19:26:14.112Z,13.45
2022-10-11T19:28:42.405Z,13.44
2022-10-11T19:31:11.776Z,13.45
2022-10-11T19:33:39.275Z,13.46
2022-10-11T19:36:07.118Z,13.38
2022-10-11T19:38:35.483Z,13.37
2022-10-11T19:41:04.646Z,13.41
2022-10-11T19:43:33.263Z,13.38
2022-10-11T19:46:01.031Z,13.34
2022-10-11T19:48:28.297Z,13.39
2022-10-11T19:51:02.307Z,13.30
2022-10-11T19:53:29.719Z,13.31
2022-10-11T19:56:00.162Z,13.29
2022-10-11T19:58:31.333Z,13.24
2022-10-11T20:01:05.970Z,13.22
2022-10-11T20:03:34.067Z,13.19
2022-10-11T20:06:02.342Z,13.11
2022-10-11T20:08:29.960Z,13.11
2022-10-11T20:10:58.021Z,13.01
2022-10-11T20:13:28.245Z,12.97
2022-10-11T20:15:59.695Z,12.95
2022-10-11T20:18:29.767Z,12.94
2022-10-11T20:21:00.265Z,12.88
2022-10-11T20:23:28.064Z,12.82
2022-10-11T20:25:59.644Z,12.67
2022-10-11T20:28:28.652Z,12.61
2022-10-11T20:30:56.060Z,12.47
2022-10-11T20:33:23.532Z,12.42
2022-10-11T20:35:58.823Z,12.32
2022-10-11T20:38:26.764Z,12.17
2022-10-11T20:40:54.146Z,12.11
2022-10-11T20:43:21.987Z,11.98
2022-10-11T20:45:58.916Z,11.94
2022-10-11T20:48:26.371Z,11.87
2022-10-11T20:50:53.690Z,11.81
2022-10-11T20:53:22.606Z,11.68
2022-10-11T20:55:50.353Z,11.64
2022-10-11T20:58:18.112Z,11.67
2022-10-11T21:00:45.696Z,11.58
2022-10-11T21:03:13.549Z,11.65
2022-10-11T21:05:40.730Z,11.58
2022-10-11T21:08:08.202Z,11.52
2022-10-11T21:10:36.859Z,11.46
2022-10-11T21:13:04.357Z,11.57
2022-10-11T21:15:32.320Z,11.57
2022-10-11T21:17:59.557Z,11.42
2022-10-11T21:20:26.867Z,11.45
2022-10-11T21:22:54.161Z,11.31
2022-10-11T21:25:21.511Z,11.15
2022-10-11T21:27:50.119Z,11.12
2022-10-11T21:30:17.366Z,11.13
2022-10-11T21:32:44.616Z,11.10
2022-10-11T21:35:11.841Z,10.93
2022-10-11T21:37:39.095Z,10.93
2022-10-11T21:40:07.190Z,10.94
2022-10-11T21:42:34.577Z,10.84
2022-10-11T21:45:03.765Z,10.72
2022-10-11T21:47:31.507Z,10.70
2022-10-11T21:49:58.803Z,10.76
2022-10-11T21:52:26.077Z,10.57
2022-10-11T21:54:53.275Z,10.63
2022-10-11T21:57:20.523Z,10.50
2022-10-11T21:59:47.929Z,10.45
2022-10-11T22:02:16.541Z,10.51
2022-10-11T22:04:43.766Z,10.60
2022-10-11T22:07:11.101Z,10.52
2022-10-11T22:09:38.397Z,10.48
2022-10-11T22:12:06.159Z,10.42
2022-10-11T22:14:33.351Z,10.41
2022-10-11T22:17:00.580Z,10.31
2022-10-11T22:19:29.106Z,10.48
2022-10-11T22:21:56.366Z,10.45
2022-10-11T22:24:23.635Z,10.34
2022-10-11T22:26:50.935Z,10.34
2022-10-11T22:29:18.262Z,10.19
2022-10-11T22:31:45.601Z,10.24
2022-10-11T22:34:13.008Z,10.36
2022-10-11T22:36:41.659Z,10.27
2022-10-11T22:39:09.060Z,10.28
2022-10-11T22:41:36.984Z,10.33
2022-10-11T22:44:04.973Z,10.31
2022-10-11T22:46:32.187Z,10.11
2022-10-11T22:48:59.539Z,10.11
2022-10-11T22:51:27.275Z,10.05
2022-10-11T22:53:55.963Z,9.95
2022-10-11T22:56:23.306Z,10.01
2022-10-11T22:58:50.719Z,9.87
2022-10-11T23:01:18.075Z,9.91
2022-10-11T23:03:47.562Z,9.81
2022-10-11T23:06:14.844Z,9.86
2022-10-11T23:08:42.052Z,9.73
2022-10-11T23:11:11.374Z,9.76
2022-10-11T23:13:38.718Z,9.73
2022-10-11T23:16:06.988Z,9.81
2022-10-11T23:18:34.518Z,9.71
2022-10-11T23:21:02.371Z,9.73
2022-10-11T23:23:29.919Z,9.66
2022-10-11T23:26:01.723Z,9.68
2022-10-11T23:28:30.532Z,9.62
2022-10-11T23:30:57.885Z,9.55
2022-10-11T23:33:25.225Z,9.56
2022-10-11T23:35:52.582Z,9.54
2022-10-11T23:38:19.845Z,9.54
2022-10-11T23:40:47.082Z,9.53
2022-10-11T23:43:14.237Z,9.48
2022-10-11T23:45:43.707Z,9.43
2022-10-11T23:48:11.467Z,9.45
2022-10-11T23:50:38.789Z,9.45
2022-10-11T23:53:06.095Z,9.41
2022-10-11T23:55:33.371Z,9.38
2022-10-11T23:58:00.543Z,9.44
